メインページ
METAR-TAF:

METAR-TAF

空港 :

リマ, ペルー

ホルヘ・チャベス国際空港

緯度: 12-00S, 経度: 077-07W, 海抜: 12m

現時点の気象観測

当レポートは42分前の00:00(UTC)に作成
南/南東の風 10kt
気温 20°C
湿度 78%
気圧 1014 hPa
視程10km以上
高度5000ftの千切れ雲あり

METAR: SPJC 120000Z 16010KT 9999 BKN050 20/16 Q1014 NOSIG RMK PP000

時間: 19:42 (00:42 UTC)

予報

当レポートは1時間42分前の23:00(UTC)に作成
予報は12日の 00時(UTC)から 12日の 24時(UTC)まで有効
南/南東の風 10kt
視程10km以上
高度4000ftの千切れ雲あり
12日の 04時(UTC)から 12日の 06時(UTC)まで徐々に
高度1500ftの千切れ雲あり
12日の 14時(UTC)から 12日の 16時(UTC)まで徐々に
南西の風 5kt
高度2000ftの雲は散在している
12日の 18時(UTC)から 12日の 20時(UTC)まで徐々に
の風 12kt

TAF: SPJC 112300Z 1200/1224 16010KT 9999 BKN040 TX23/1220Z TN18/1210Z BECMG 1204/1206 BKN015 BECMG 1214/1216 23005KT SCT020 BECMG 1218/1220 18012KT

4,000以上の空港の気象観測と天気予報(METAR報とTAF報)

利用可能な観測所は地図上に黄色い丸と赤い丸で示す。

丸の上にカーソルを重ねると観測所名を参照できる。

次にクリックすると気象観測と天気予報を参照できる。

マップの切り替え:黒色「×」印の緑ボタンをクリックして拡大、「-」印の緑ボタンをクリックして縮小、緑色の三角印をクリックして隣りの地図に切り替え


METAR-TAF: